Time,TemperatureF,DewpointF,PressureIn,WindDirection,WindDirectionDegrees,WindSpeedMPH,WindSpeedGustMPH,Humidity,HourlyPrecipIn,Conditions,Clouds,dailyrainin,SoftwareType,DateUTC
2013-03-29 00:07:00,48.4,34.7,30.14,South,174,1.0,7.0,59,0.00,,,0.00,meteohub,2013-03-29 07:07:00,
2013-03-29 00:17:00,48.0,35.2,30.14,ESE,113,0.0,5.0,61,0.00,,,0.00,meteohub,2013-03-29 07:17:00,
2013-03-29 00:22:00,47.7,35.6,30.14,SSE,164,0.0,3.0,63,0.00,,,0.00,meteohub,2013-03-29 07:22:00,
2013-03-29 00:27:00,47.1,35.6,30.14,SSE,160,0.0,2.0,64,0.00,,,0.00,meteohub,2013-03-29 07:27:00,
2013-03-29 00:32:00,46.8,35.6,30.14,SSE,148,0.0,0.0,65,0.00,,,0.00,meteohub,2013-03-29 07:32:00,
2013-03-29 00:42:00,46.8,35.2,30.14,SW,226,0.0,0.0,64,0.00,,,0.00,meteohub,2013-03-29 07:42:00,
2013-03-29 00:47:00,46.6,34.7,30.14,South,186,0.0,0.0,63,0.00,,,0.00,meteohub,2013-03-29 07:47:00,
2013-03-29 00:52:00,46.8,34.5,30.14,SSE,160,1.0,1.0,62,0.00,,,0.00,meteohub,2013-03-29 07:52:00,
2013-03-29 01:02:00,46.9,34.5,30.14,South,170,4.0,4.0,62,0.00,,,0.00,meteohub,2013-03-29 08:02:00,
2013-03-29 01:07:00,46.9,34.2,30.14,SSE,167,1.0,4.0,61,0.00,,,0.00,meteohub,2013-03-29 08:07:00,
2013-03-29 01:12:00,47.1,34.7,30.14,SW,224,1.0,4.0,62,0.00,,,0.00,meteohub,2013-03-29 08:12:00,
2013-03-29 01:17:00,46.9,34.5,30.14,SSW,200,1.0,4.0,62,0.00,,,0.00,meteohub,2013-03-29 08:17:00,
2013-03-29 01:22:00,46.9,34.5,30.14,South,190,0.0,2.0,62,0.00,,,0.00,meteohub,2013-03-29 08:22:00,
2013-03-29 01:27:00,46.9,34.5,30.14,SE,136,0.0,2.0,62,0.00,,,0.00,meteohub,2013-03-29 08:27:00,
2013-03-29 01:32:00,47.1,34.7,30.14,SE,138,0.0,1.0,62,0.00,,,0.00,meteohub,2013-03-29 08:32:00,
2013-03-29 01:37:00,47.3,34.9,30.14,South,169,0.0,0.0,62,0.00,,,0.00,meteohub,2013-03-29 08:37:00,
2013-03-29 01:42:00,47.1,34.7,30.14,South,169,0.0,0.0,62,0.00,,,0.00,meteohub,2013-03-29 08:42:00,
2013-03-29 01:47:00,47.1,35.2,30.14,South,176,0.0,0.0,63,0.00,,,0.00,meteohub,2013-03-29 08:47:00,
2013-03-29 01:52:00,47.1,34.7,30.14,South,176,0.0,0.0,62,0.00,,,0.00,meteohub,2013-03-29 08:52:00,
2013-03-29 01:57:00,46.9,34.5,30.14,SSW,204,0.0,0.0,62,0.00,,,0.00,meteohub,2013-03-29 08:57:00,
2013-03-29 02:02:00,46.8,34.5,30.14,SSW,204,0.0,0.0,62,0.00,,,0.00,meteohub,2013-03-29 09:02:00,
2013-03-29 02:07:00,46.6,34.3,30.14,SSW,203,0.0,0.0,62,0.00,,,0.00,meteohub,2013-03-29 09:07:00,
2013-03-29 02:17:00,46.6,33.8,30.14,SW,226,0.0,0.0,61,0.00,,,0.00,meteohub,2013-03-29 09:17:00,
2013-03-29 02:22:00,46.6,33.4,30.14,SW,226,0.0,0.0,60,0.00,,,0.00,meteohub,2013-03-29 09:22:00,
2013-03-29 02:27:00,46.6,33.4,30.14,SW,226,0.0,0.0,60,0.00,,,0.00,meteohub,2013-03-29 09:27:00,
2013-03-29 02:32:00,46.6,33.4,30.13,SW,223,0.0,0.0,60,0.00,,,0.00,meteohub,2013-03-29 09:32:00,
2013-03-29 02:37:00,46.6,33.4,30.13,SSE,165,0.0,0.0,60,0.00,,,0.00,meteohub,2013-03-29 09:37:00,
2013-03-29 02:42:00,46.6,33.4,30.13,SSE,165,0.0,0.0,60,0.00,,,0.00,meteohub,2013-03-29 09:42:00,
2013-03-29 02:52:00,46.8,32.7,30.13,SSE,161,0.0,0.0,58,0.00,,,0.00,meteohub,2013-03-29 09:52:00,
2013-03-29 02:57:00,47.1,32.7,30.13,South,170,0.0,0.0,57,0.00,,,0.00,meteohub,2013-03-29 09:57:00,
2013-03-29 03:02:00,47.1,32.7,30.13,South,186,0.0,0.0,57,0.00,,,0.00,meteohub,2013-03-29 10:02:00,
2013-03-29 03:07:00,47.1,33.4,30.13,SW,232,0.0,0.0,59,0.00,,,0.00,meteohub,2013-03-29 10:07:00,
2013-03-29 03:17:00,46.9,33.4,30.13,SW,219,0.0,0.0,59,0.00,,,0.00,meteohub,2013-03-29 10:17:00,
2013-03-29 03:22:00,47.1,33.1,30.13,South,190,0.0,0.0,58,0.00,,,0.00,meteohub,2013-03-29 10:22:00,
2013-03-29 03:32:00,46.9,33.4,30.12,SSW,193,0.0,0.0,59,0.00,,,0.00,meteohub,2013-03-29 10:32:00,
2013-03-29 03:37:00,46.8,33.6,30.12,SW,231,0.0,0.0,60,0.00,,,0.00,meteohub,2013-03-29 10:37:00,
2013-03-29 03:42:00,46.6,33.4,30.12,SW,229,0.0,0.0,60,0.00,,,0.00,meteohub,2013-03-29 10:42:00,
2013-03-29 03:47:00,46.2,33.4,30.12,SW,233,0.0,0.0,61,0.00,,,0.00,meteohub,2013-03-29 10:47:00,
2013-03-29 03:52:00,46.2,33.1,30.12,SW,235,0.0,0.0,60,0.00,,,0.00,meteohub,2013-03-29 10:52:00,
2013-03-29 03:57:00,46.2,32.7,30.12,SW,232,0.0,0.0,59,0.00,,,0.00,meteohub,2013-03-29 10:57:00,
2013-03-29 04:02:00,46.8,32.7,30.12,SW,232,0.0,0.0,58,0.00,,,0.00,meteohub,2013-03-29 11:02:00,
2013-03-29 04:12:00,46.2,33.1,30.12,SW,234,0.0,0.0,60,0.00,,,0.00,meteohub,2013-03-29 11:12:00,
2013-03-29 04:17:00,46.2,32.7,30.12,SW,236,0.0,0.0,59,0.00,,,0.00,meteohub,2013-03-29 11:17:00,
2013-03-29 04:27:00,46.9,32.9,30.12,SW,236,0.0,0.0,58,0.00,,,0.00,meteohub,2013-03-29 11:27:00,
2013-03-29 04:32:00,46.9,32.5,30.12,SW,236,0.0,0.0,57,0.00,,,0.00,meteohub,2013-03-29 11:32:00,
2013-03-29 04:42:00,47.1,32.7,30.12,WSW,245,0.0,0.0,57,0.00,,,0.00,meteohub,2013-03-29 11:42:00,
2013-03-29 04:47:00,47.5,32.5,30.12,WSW,245,0.0,0.0,56,0.00,,,0.00,meteohub,2013-03-29 11:47:00,
2013-03-29 04:57:00,47.7,32.4,30.12,WSW,245,0.0,0.0,55,0.00,,,0.00,meteohub,2013-03-29 11:57:00,
2013-03-29 05:02:00,47.5,32.2,30.12,WSW,245,0.0,0.0,55,0.00,,,0.00,meteohub,2013-03-29 12:02:00,
2013-03-29 05:07:00,46.9,32.0,30.12,SSW,204,0.0,0.0,56,0.00,,,0.00,meteohub,2013-03-29 12:07:00,
2013-03-29 05:17:00,46.6,32.2,30.12,SSW,203,0.0,0.0,57,0.00,,,0.00,meteohub,2013-03-29 12:17:00,
2013-03-29 05:22:00,46.4,32.4,30.12,SSW,204,0.0,0.0,58,0.00,,,0.00,meteohub,2013-03-29 12:22:00,
2013-03-29 05:32:00,46.6,32.2,30.12,SSW,203,0.0,0.0,57,0.00,,,0.00,meteohub,2013-03-29 12:32:00,
2013-03-29 05:37:00,46.6,32.2,30.12,SSW,203,0.0,0.0,57,0.00,,,0.00,meteohub,2013-03-29 12:37:00,
2013-03-29 05:42:00,46.6,32.2,30.12,SSW,203,0.0,0.0,57,0.00,,,0.00,meteohub,2013-03-29 12:42:00,
2013-03-29 05:47:00,46.8,32.7,30.12,SSW,203,0.0,0.0,58,0.00,,,0.00,meteohub,2013-03-29 12:47:00,
2013-03-29 05:57:00,46.8,32.7,30.13,SSW,203,0.0,0.0,58,0.00,,,0.00,meteohub,2013-03-29 12:57:00,
2013-03-29 06:07:00,46.9,32.5,30.13,SSW,203,0.0,0.0,57,0.00,,,0.00,meteohub,2013-03-29 13:07:00,
2013-03-29 06:17:00,46.9,32.5,30.13,SSW,203,0.0,0.0,57,0.00,,,0.00,meteohub,2013-03-29 13:17:00,
2013-03-29 06:27:00,46.8,32.4,30.13,SSW,203,0.0,0.0,57,0.00,,,0.00,meteohub,2013-03-29 13:27:00,
2013-03-29 06:37:00,46.8,31.8,30.13,SSW,203,0.0,0.0,56,0.00,,,0.00,meteohub,2013-03-29 13:37:00,
2013-03-29 06:42:00,46.9,32.0,30.13,SSW,203,0.0,0.0,56,0.00,,,0.00,meteohub,2013-03-29 13:42:00,
2013-03-29 06:47:00,46.8,31.8,30.14,SSW,203,0.0,0.0,56,0.00,,,0.00,meteohub,2013-03-29 13:47:00,
2013-03-29 06:52:00,46.9,32.0,30.14,SSW,203,0.0,0.0,56,0.00,,,0.00,meteohub,2013-03-29 13:52:00,
2013-03-29 06:57:00,46.9,32.5,30.14,SSW,212,0.0,0.0,57,0.00,,,0.00,meteohub,2013-03-29 13:57:00,
2013-03-29 07:02:00,46.9,32.5,30.14,SW,218,0.0,0.0,57,0.00,,,0.00,meteohub,2013-03-29 14:02:00,
2013-03-29 07:12:00,47.7,32.4,30.14,SW,221,0.0,0.0,55,0.00,,,0.00,meteohub,2013-03-29 14:12:00,
2013-03-29 07:17:00,48.4,32.5,30.15,SW,219,0.0,0.0,54,0.00,,,0.00,meteohub,2013-03-29 14:17:00,
2013-03-29 07:22:00,49.3,33.3,30.15,SW,219,0.0,0.0,54,0.00,,,0.00,meteohub,2013-03-29 14:22:00,
2013-03-29 07:27:00,50.7,33.3,30.15,SW,217,0.0,0.0,51,0.00,,,0.00,meteohub,2013-03-29 14:27:00,
2013-03-29 07:37:00,53.1,35.4,30.15,SW,217,0.0,0.0,51,0.00,,,0.00,meteohub,2013-03-29 14:37:00,
2013-03-29 07:42:00,54.1,34.9,30.15,SW,217,0.0,0.0,48,0.00,,,0.00,meteohub,2013-03-29 14:42:00,
2013-03-29 07:47:00,54.9,34.5,30.15,NNW,346,0.0,0.0,46,0.00,,,0.00,meteohub,2013-03-29 14:47:00,
2013-03-29 07:52:00,55.4,33.8,30.15,North,351,0.0,0.0,44,0.00,,,0.00,meteohub,2013-03-29 14:52:00,
2013-03-29 07:57:00,55.2,33.6,30.15,NNE,24,0.0,0.0,44,0.00,,,0.00,meteohub,2013-03-29 14:57:00,
2013-03-29 08:02:00,55.0,34.2,30.15,ENE,58,0.0,0.0,45,0.00,,,0.00,meteohub,2013-03-29 15:02:00,
2013-03-29 08:07:00,55.0,33.4,30.15,ESE,108,0.0,0.0,44,0.00,,,0.00,meteohub,2013-03-29 15:07:00,
2013-03-29 08:12:00,55.4,32.0,30.15,NE,48,0.0,0.0,41,0.00,,,0.00,meteohub,2013-03-29 15:12:00,
2013-03-29 08:17:00,55.8,33.1,30.15,ESE,107,0.0,0.0,42,0.00,,,0.00,meteohub,2013-03-29 15:17:00,
2013-03-29 08:22:00,55.9,33.3,30.15,ESE,113,0.0,0.0,42,0.00,,,0.00,meteohub,2013-03-29 15:22:00,
2013-03-29 08:27:00,55.9,32.5,30.16,ENE,70,0.0,0.0,41,0.00,,,0.00,meteohub,2013-03-29 15:27:00,
2013-03-29 08:37:00,56.7,33.8,30.16,ENE,59,1.0,3.0,42,0.00,,,0.00,meteohub,2013-03-29 15:37:00,
2013-03-29 08:42:00,56.8,33.4,30.16,NE,44,0.0,3.0,41,0.00,,,0.00,meteohub,2013-03-29 15:42:00,
2013-03-29 08:52:00,57.2,33.1,30.16,ESE,115,1.0,3.0,40,0.00,,,0.00,meteohub,2013-03-29 15:52:00,
2013-03-29 08:57:00,57.7,33.6,30.16,ENE,57,2.0,3.0,40,0.00,,,0.00,meteohub,2013-03-29 15:57:00,
2013-03-29 09:02:00,58.5,34.2,30.16,East,86,2.0,3.0,40,0.00,,,0.00,meteohub,2013-03-29 16:02:00,
2013-03-29 09:07:00,59.2,34.9,30.16,ENE,60,2.0,2.0,40,0.00,,,0.00,meteohub,2013-03-29 16:07:00,
2013-03-29 09:12:00,59.2,33.6,30.16,ESE,119,2.0,2.0,38,0.00,,,0.00,meteohub,2013-03-29 16:12:00,
2013-03-29 09:17:00,59.2,32.9,30.16,SW,215,1.0,3.0,37,0.00,,,0.00,meteohub,2013-03-29 16:17:00,
2013-03-29 09:22:00,59.2,33.6,30.15,ESE,113,0.0,3.0,38,0.00,,,0.00,meteohub,2013-03-29 16:22:00,
2013-03-29 09:27:00,59.2,33.6,30.16,NW,326,0.0,3.0,38,0.00,,,0.00,meteohub,2013-03-29 16:27:00,
2013-03-29 09:37:00,60.4,35.4,30.16,West,262,0.0,2.0,39,0.00,,,0.00,meteohub,2013-03-29 16:37:00,
2013-03-29 09:42:00,59.7,34.7,30.16,SW,218,1.0,4.0,39,0.00,,,0.00,meteohub,2013-03-29 16:42:00,
2013-03-29 09:47:00,60.4,34.7,30.16,SW,215,2.0,4.0,38,0.00,,,0.00,meteohub,2013-03-29 16:47:00,
2013-03-29 09:52:00,60.4,34.7,30.16,West,280,0.0,4.0,38,0.00,,,0.00,meteohub,2013-03-29 16:52:00,
2013-03-29 10:02:00,61.5,34.3,30.16,ESE,117,1.0,4.0,36,0.00,,,0.00,meteohub,2013-03-29 17:02:00,
2013-03-29 10:12:00,62.6,34.5,30.16,SW,229,2.0,3.0,35,0.00,,,0.00,meteohub,2013-03-29 17:12:00,
2013-03-29 10:17:00,62.1,33.4,30.16,South,186,2.0,4.0,34,0.00,,,0.00,meteohub,2013-03-29 17:17:00,
2013-03-29 10:22:00,61.5,34.3,30.16,SW,224,1.0,5.0,36,0.00,,,0.00,meteohub,2013-03-29 17:22:00,
2013-03-29 10:32:00,62.1,34.9,30.17,SE,144,2.0,5.0,36,0.00,,,0.00,meteohub,2013-03-29 17:32:00,
2013-03-29 10:42:00,62.1,32.5,30.16,SSE,167,2.0,4.0,33,0.00,,,0.00,meteohub,2013-03-29 17:42:00,
2013-03-29 10:47:00,61.5,32.9,30.17,ESE,110,1.0,4.0,34,0.00,,,0.00,meteohub,2013-03-29 17:47:00,
2013-03-29 10:57:00,61.3,34.2,30.16,SW,235,1.0,6.0,36,0.00,,,0.00,meteohub,2013-03-29 17:57:00,
2013-03-29 11:02:00,60.4,33.4,30.16,SSE,159,3.0,7.0,36,0.00,,,0.00,meteohub,2013-03-29 18:02:00,
2013-03-29 11:07:00,61.0,33.8,30.16,SSE,148,2.0,7.0,36,0.00,,,0.00,meteohub,2013-03-29 18:07:00,
2013-03-29 11:17:00,61.2,33.3,30.16,ENE,72,2.0,9.0,35,0.00,,,0.00,meteohub,2013-03-29 18:17:00,
2013-03-29 11:22:00,61.5,33.6,30.16,NE,41,2.0,9.0,35,0.00,,,0.00,meteohub,2013-03-29 18:22:00,
2013-03-29 11:27:00,62.1,34.9,30.16,NNW,327,2.0,9.0,36,0.00,,,0.00,meteohub,2013-03-29 18:27:00,
2013-03-29 11:37:00,62.8,35.4,30.16,SW,232,0.0,5.0,36,0.00,,,0.00,meteohub,2013-03-29 18:37:00,
2013-03-29 11:42:00,62.6,35.2,30.16,WSW,250,5.0,5.0,36,0.00,,,0.00,meteohub,2013-03-29 18:42:00,
2013-03-29 11:47:00,62.1,36.1,30.16,NNW,348,4.0,5.0,38,0.00,,,0.00,meteohub,2013-03-29 18:47:00,
2013-03-29 11:52:00,62.4,36.5,30.16,SW,217,1.0,7.0,38,0.00,,,0.00,meteohub,2013-03-29 18:52:00,
2013-03-29 11:57:00,63.0,37.6,30.16,West,262,2.0,7.0,39,0.00,,,0.00,meteohub,2013-03-29 18:57:00,
2013-03-29 12:02:00,63.0,37.0,30.16,NE,41,2.0,7.0,38,0.00,,,0.00,meteohub,2013-03-29 19:02:00,
2013-03-29 12:07:00,62.8,36.9,30.16,ESE,117,6.0,7.0,38,0.00,,,0.00,meteohub,2013-03-29 19:07:00,
2013-03-29 12:12:00,63.0,38.3,30.16,ESE,120,7.0,9.0,40,0.00,,,0.00,meteohub,2013-03-29 19:12:00,
2013-03-29 12:17:00,62.1,35.4,30.16,East,80,4.0,12.0,37,0.00,,,0.00,meteohub,2013-03-29 19:17:00,
2013-03-29 12:22:00,62.1,36.1,30.15,South,176,2.0,12.0,38,0.00,,,0.00,meteohub,2013-03-29 19:22:00,
2013-03-29 12:32:00,62.8,34.0,30.15,SE,125,4.0,10.0,34,0.00,,,0.00,meteohub,2013-03-29 19:32:00,
2013-03-29 12:42:00,63.7,34.0,30.15,ESE,121,2.0,9.0,33,0.00,,,0.00,meteohub,2013-03-29 19:42:00,
2013-03-29 12:47:00,63.3,33.8,30.15,East,89,2.0,9.0,33,0.00,,,0.00,meteohub,2013-03-29 19:47:00,
2013-03-29 12:57:00,62.4,34.3,30.14,SSE,156,7.0,19.0,35,0.00,,,0.00,meteohub,2013-03-29 19:57:00,
2013-03-29 13:02:00,62.1,34.2,30.14,ESE,116,4.0,19.0,35,0.00,,,0.00,meteohub,2013-03-29 20:02:00,
2013-03-29 13:07:00,62.6,34.5,30.14,SW,214,3.0,13.0,35,0.00,,,0.00,meteohub,2013-03-29 20:07:00,
2013-03-29 13:12:00,62.4,34.3,30.14,SSE,153,1.0,13.0,35,0.00,,,0.00,meteohub,2013-03-29 20:12:00,
2013-03-29 13:17:00,62.2,33.4,30.14,SE,129,2.0,13.0,34,0.00,,,0.00,meteohub,2013-03-29 20:17:00,
2013-03-29 13:22:00,62.2,33.4,30.14,ESE,110,1.0,12.0,34,0.00,,,0.00,meteohub,2013-03-29 20:22:00,
2013-03-29 13:32:00,63.1,35.8,30.14,ESE,102,4.0,9.0,36,0.00,,,0.00,meteohub,2013-03-29 20:32:00,
2013-03-29 13:37:00,63.3,34.5,30.14,SSE,153,8.0,9.0,34,0.00,,,0.00,meteohub,2013-03-29 20:37:00,
2013-03-29 13:42:00,63.1,34.3,30.14,SSE,151,2.0,8.0,34,0.00,,,0.00,meteohub,2013-03-29 20:42:00,
2013-03-29 13:47:00,63.3,34.5,30.14,SSE,156,2.0,11.0,34,0.00,,,0.00,meteohub,2013-03-29 20:47:00,
2013-03-29 13:52:00,63.7,34.7,30.14,SE,131,8.0,11.0,34,0.00,,,0.00,meteohub,2013-03-29 20:52:00,
2013-03-29 13:57:00,63.5,35.4,30.13,SSE,167,2.0,9.0,35,0.00,,,0.00,meteohub,2013-03-29 20:57:00,
2013-03-29 14:02:00,63.1,33.6,30.13,ESE,117,4.0,8.0,33,0.00,,,0.00,meteohub,2013-03-29 21:02:00,
2013-03-29 14:07:00,63.0,34.9,30.13,SSE,156,6.0,11.0,35,0.00,,,0.00,meteohub,2013-03-29 21:07:00,
2013-03-29 14:12:00,62.6,34.5,30.13,ESE,117,4.0,11.0,35,0.00,,,0.00,meteohub,2013-03-29 21:12:00,
2013-03-29 14:17:00,62.6,36.0,30.13,South,179,4.0,11.0,37,0.00,,,0.00,meteohub,2013-03-29 21:17:00,
2013-03-29 14:22:00,62.8,34.7,30.13,SSE,163,2.0,11.0,35,0.00,,,0.00,meteohub,2013-03-29 21:22:00,
2013-03-29 14:27:00,62.4,34.3,30.12,SE,127,4.0,11.0,35,0.00,,,0.00,meteohub,2013-03-29 21:27:00,
2013-03-29 14:32:00,62.4,35.8,30.12,South,169,0.0,13.0,37,0.00,,,0.00,meteohub,2013-03-29 21:32:00,
2013-03-29 14:42:00,63.5,36.1,30.12,SE,124,5.0,13.0,36,0.00,,,0.00,meteohub,2013-03-29 21:42:00,
2013-03-29 14:47:00,63.3,36.7,30.12,South,179,3.0,13.0,37,0.00,,,0.00,meteohub,2013-03-29 21:47:00,
2013-03-29 14:52:00,63.3,36.0,30.12,SE,124,2.0,13.0,36,0.00,,,0.00,meteohub,2013-03-29 21:52:00,
2013-03-29 14:57:00,63.0,35.6,30.12,East,79,3.0,9.0,36,0.00,,,0.00,meteohub,2013-03-29 21:57:00,
2013-03-29 15:07:00,63.1,36.5,30.12,SW,233,6.0,11.0,37,0.00,,,0.00,meteohub,2013-03-29 22:07:00,
2013-03-29 15:12:00,63.0,35.6,30.11,SE,138,3.0,11.0,36,0.00,,,0.00,meteohub,2013-03-29 22:12:00,
2013-03-29 15:17:00,63.0,36.3,30.11,SSW,194,4.0,10.0,37,0.00,,,0.00,meteohub,2013-03-29 22:17:00,
2013-03-29 15:27:00,62.1,35.4,30.11,SE,132,4.0,9.0,37,0.00,,,0.00,meteohub,2013-03-29 22:27:00,
2013-03-29 15:32:00,61.5,36.3,30.11,SE,135,0.0,10.0,39,0.00,,,0.00,meteohub,2013-03-29 22:32:00,
2013-03-29 15:42:00,61.0,35.8,30.10,SSE,156,4.0,10.0,39,0.00,,,0.00,meteohub,2013-03-29 22:42:00,
2013-03-29 15:47:00,60.6,36.1,30.10,East,85,4.0,9.0,40,0.00,,,0.00,meteohub,2013-03-29 22:47:00,
2013-03-29 15:52:00,60.3,36.5,30.10,ENE,72,3.0,9.0,41,0.00,,,0.00,meteohub,2013-03-29 22:52:00,
2013-03-29 16:02:00,60.1,36.9,30.10,East,96,1.0,8.0,42,0.00,,,0.00,meteohub,2013-03-29 23:02:00,
2013-03-29 16:12:00,60.4,36.0,30.10,SW,236,1.0,8.0,40,0.00,,,0.00,meteohub,2013-03-29 23:12:00,
2013-03-29 16:17:00,60.8,36.9,30.10,SSE,148,3.0,10.0,41,0.00,,,0.00,meteohub,2013-03-29 23:17:00,
2013-03-29 16:27:00,61.0,37.8,30.09,WSW,238,1.0,10.0,42,0.00,,,0.00,meteohub,2013-03-29 23:27:00,
2013-03-29 16:32:00,60.6,36.9,30.09,SE,141,3.0,11.0,41,0.00,,,0.00,meteohub,2013-03-29 23:32:00,
2013-03-29 16:42:00,59.7,37.2,30.09,ESE,108,2.0,12.0,43,0.00,,,0.00,meteohub,2013-03-29 23:42:00,
2013-03-29 16:47:00,59.4,37.4,30.09,SSW,208,3.0,14.0,44,0.00,,,0.00,meteohub,2013-03-29 23:47:00,
2013-03-29 16:52:00,59.2,38.5,30.09,South,176,4.0,14.0,46,0.00,,,0.00,meteohub,2013-03-29 23:52:00,
2013-03-29 16:57:00,58.8,38.7,30.09,South,191,1.0,14.0,47,0.00,,,0.00,meteohub,2013-03-29 23:57:00,
2013-03-29 17:02:00,58.8,39.2,30.09,SW,224,3.0,10.0,48,0.00,,,0.00,meteohub,2013-03-30 00:02:00,
2013-03-29 17:12:00,58.8,40.3,30.09,SE,126,2.0,10.0,50,0.00,,,0.00,meteohub,2013-03-30 00:12:00,
2013-03-29 17:17:00,58.8,40.8,30.09,ESE,120,1.0,10.0,51,0.00,,,0.00,meteohub,2013-03-30 00:17:00,
2013-03-29 17:22:00,58.6,40.6,30.09,SE,145,3.0,10.0,51,0.00,,,0.00,meteohub,2013-03-30 00:22:00,
2013-03-29 17:27:00,58.3,41.2,30.09,SW,228,4.0,11.0,53,0.00,,,0.00,meteohub,2013-03-30 00:27:00,
2013-03-29 17:32:00,57.9,40.8,30.09,ESE,107,4.0,11.0,53,0.00,,,0.00,meteohub,2013-03-30 00:32:00,
2013-03-29 17:37:00,57.6,41.5,30.09,East,98,7.0,10.0,55,0.00,,,0.00,meteohub,2013-03-30 00:37:00,
2013-03-29 17:47:00,57.0,42.4,30.09,SSE,161,2.0,10.0,58,0.00,,,0.00,meteohub,2013-03-30 00:47:00,
2013-03-29 17:52:00,56.7,43.0,30.09,SE,129,4.0,9.0,60,0.00,,,0.00,meteohub,2013-03-30 00:52:00,
2013-03-29 17:57:00,56.3,43.0,30.09,SSW,195,2.0,11.0,61,0.00,,,0.00,meteohub,2013-03-30 00:57:00,
2013-03-29 18:07:00,55.8,44.2,30.09,SSE,167,4.0,11.0,65,0.00,,,0.00,meteohub,2013-03-30 01:07:00,
2013-03-29 18:12:00,55.4,44.2,30.09,ESE,115,3.0,8.0,66,0.00,,,0.00,meteohub,2013-03-30 01:12:00,
2013-03-29 18:17:00,55.0,44.2,30.09,SE,129,1.0,10.0,67,0.00,,,0.00,meteohub,2013-03-30 01:17:00,
2013-03-29 18:22:00,54.7,44.8,30.09,SE,146,1.0,11.0,69,0.00,,,0.00,meteohub,2013-03-30 01:22:00,
2013-03-29 18:27:00,54.3,45.1,30.09,SSE,150,9.0,11.0,71,0.00,,,0.00,meteohub,2013-03-30 01:27:00,
2013-03-29 18:32:00,54.1,45.3,30.09,ESE,116,3.0,11.0,72,0.00,,,0.00,meteohub,2013-03-30 01:32:00,
2013-03-29 18:42:00,53.4,45.7,30.09,ESE,115,1.0,14.0,75,0.00,,,0.00,meteohub,2013-03-30 01:42:00,
2013-03-29 18:52:00,52.9,45.9,30.09,SE,141,2.0,11.0,77,0.00,,,0.00,meteohub,2013-03-30 01:52:00,
2013-03-29 18:57:00,52.5,46.2,30.09,SE,124,3.0,11.0,79,0.00,,,0.00,meteohub,2013-03-30 01:57:00,
2013-03-29 19:07:00,52.0,46.4,30.09,ESE,120,4.0,9.0,81,0.00,,,0.00,meteohub,2013-03-30 02:07:00,
2013-03-29 19:12:00,51.8,45.9,30.09,East,100,4.0,11.0,80,0.00,,,0.00,meteohub,2013-03-30 02:12:00,
2013-03-29 19:22:00,51.6,44.2,30.09,ESE,120,1.0,8.0,76,0.00,,,0.00,meteohub,2013-03-30 02:22:00,
2013-03-29 19:27:00,51.8,43.3,30.09,South,190,1.0,8.0,73,0.00,,,0.00,meteohub,2013-03-30 02:27:00,
2013-03-29 19:37:00,51.8,41.9,30.09,ESE,117,2.0,6.0,69,0.00,,,0.00,meteohub,2013-03-30 02:37:00,
2013-03-29 19:42:00,51.8,40.1,30.10,South,169,5.0,6.0,64,0.00,,,0.00,meteohub,2013-03-30 02:42:00,
2013-03-29 19:47:00,52.0,39.4,30.10,ESE,107,2.0,11.0,62,0.00,,,0.00,meteohub,2013-03-30 02:47:00,
2013-03-29 19:52:00,52.0,38.5,30.10,SSE,151,6.0,11.0,60,0.00,,,0.00,meteohub,2013-03-30 02:52:00,
2013-03-29 19:57:00,52.0,37.6,30.10,SE,142,2.0,11.0,58,0.00,,,0.00,meteohub,2013-03-30 02:57:00,
2013-03-29 20:02:00,52.0,36.9,30.10,SSW,211,2.0,8.0,56,0.00,,,0.00,meteohub,2013-03-30 03:02:00,
2013-03-29 20:12:00,52.0,37.2,30.11,SSE,163,3.0,8.0,57,0.00,,,0.00,meteohub,2013-03-30 03:12:00,
2013-03-29 20:22:00,52.5,38.7,30.11,SSE,162,2.0,7.0,59,0.00,,,0.00,meteohub,2013-03-30 03:22:00,
2013-03-29 20:27:00,52.9,39.0,30.11,ESE,104,1.0,8.0,59,0.00,,,0.00,meteohub,2013-03-30 03:27:00,
2013-03-29 20:32:00,53.1,39.2,30.12,SE,141,3.0,8.0,59,0.00,,,0.00,meteohub,2013-03-30 03:32:00,
2013-03-29 20:37:00,53.4,39.0,30.12,South,183,2.0,8.0,58,0.00,,,0.00,meteohub,2013-03-30 03:37:00,
2013-03-29 20:42:00,53.6,38.7,30.12,South,174,4.0,11.0,57,0.00,,,0.00,meteohub,2013-03-30 03:42:00,
2013-03-29 20:47:00,53.8,38.8,30.12,SSW,204,2.0,11.0,57,0.00,,,0.00,meteohub,2013-03-30 03:47:00,
2013-03-29 20:52:00,53.8,38.8,30.12,SSE,152,6.0,11.0,57,0.00,,,0.00,meteohub,2013-03-30 03:52:00,
2013-03-29 20:57:00,53.8,38.8,30.12,SE,134,4.0,11.0,57,0.00,,,0.00,meteohub,2013-03-30 03:57:00,
2013-03-29 21:02:00,53.6,38.7,30.12,South,181,3.0,11.0,57,0.00,,,0.00,meteohub,2013-03-30 04:02:00,
2013-03-29 21:07:00,53.6,39.2,30.12,SSE,160,5.0,11.0,58,0.00,,,0.00,meteohub,2013-03-30 04:07:00,
2013-03-29 21:12:00,53.4,38.5,30.12,SSE,147,7.0,11.0,57,0.00,,,0.00,meteohub,2013-03-30 04:12:00,
2013-03-29 21:17:00,53.2,38.5,30.12,SSE,152,7.0,10.0,57,0.00,,,0.00,meteohub,2013-03-30 04:17:00,
2013-03-29 21:22:00,53.2,37.9,30.12,SSE,153,2.0,10.0,56,0.00,,,0.00,meteohub,2013-03-30 04:22:00,
2013-03-29 21:27:00,53.1,36.0,30.12,SW,222,6.0,10.0,52,0.00,,,0.00,meteohub,2013-03-30 04:27:00,
2013-03-29 21:32:00,52.9,36.1,30.13,SE,131,2.0,10.0,53,0.00,,,0.00,meteohub,2013-03-30 04:32:00,
2013-03-29 21:37:00,52.9,36.7,30.13,SE,124,3.0,11.0,54,0.00,,,0.00,meteohub,2013-03-30 04:37:00,
2013-03-29 21:42:00,52.9,36.1,30.12,SE,127,3.0,11.0,53,0.00,,,0.00,meteohub,2013-03-30 04:42:00,
2013-03-29 21:47:00,52.5,33.4,30.13,ESE,103,4.0,11.0,48,0.00,,,0.00,meteohub,2013-03-30 04:47:00,
2013-03-29 21:52:00,52.5,34.0,30.13,SE,138,3.0,12.0,49,0.00,,,0.00,meteohub,2013-03-30 04:52:00,
2013-03-29 21:57:00,52.5,36.0,30.13,ESE,121,5.0,12.0,53,0.00,,,0.00,meteohub,2013-03-30 04:57:00,
2013-03-29 22:02:00,52.5,34.9,30.13,SE,133,4.0,12.0,51,0.00,,,0.00,meteohub,2013-03-30 05:02:00,
2013-03-29 22:07:00,52.3,36.1,30.13,SE,141,2.0,11.0,54,0.00,,,0.00,meteohub,2013-03-30 05:07:00,
2013-03-29 22:12:00,52.2,35.1,30.13,SSE,156,4.0,9.0,52,0.00,,,0.00,meteohub,2013-03-30 05:12:00,
2013-03-29 22:17:00,52.0,35.4,30.13,SE,132,3.0,9.0,53,0.00,,,0.00,meteohub,2013-03-30 05:17:00,
2013-03-29 22:22:00,51.8,34.7,30.13,SSE,163,3.0,9.0,52,0.00,,,0.00,meteohub,2013-03-30 05:22:00,
2013-03-29 22:27:00,51.8,35.6,30.13,SSE,148,5.0,9.0,54,0.00,,,0.00,meteohub,2013-03-30 05:27:00,
2013-03-29 22:32:00,51.6,36.9,30.13,SSE,149,3.0,9.0,57,0.00,,,0.00,meteohub,2013-03-30 05:32:00,
2013-03-29 22:37:00,51.4,38.5,30.13,ESE,117,3.0,11.0,61,0.00,,,0.00,meteohub,2013-03-30 05:37:00,
2013-03-29 22:47:00,51.3,39.0,30.12,SSE,164,2.0,12.0,63,0.00,,,0.00,meteohub,2013-03-30 05:47:00,
2013-03-29 22:57:00,50.7,42.1,30.12,South,183,2.0,9.0,72,0.00,,,0.00,meteohub,2013-03-30 05:57:00,
2013-03-29 23:02:00,50.5,43.3,30.13,ESE,103,7.0,9.0,76,0.00,,,0.00,meteohub,2013-03-30 06:02:00,
2013-03-29 23:07:00,50.5,44.6,30.12,East,100,4.0,12.0,80,0.00,,,0.00,meteohub,2013-03-30 06:07:00,
2013-03-29 23:12:00,50.4,44.8,30.12,SSE,148,2.0,12.0,81,0.00,,,0.00,meteohub,2013-03-30 06:12:00,
2013-03-29 23:17:00,50.4,45.7,30.12,SE,133,2.0,10.0,84,0.00,,,0.00,meteohub,2013-03-30 06:17:00,
2013-03-29 23:22:00,50.2,45.9,30.12,SSW,193,5.0,10.0,85,0.00,,,0.00,meteohub,2013-03-30 06:22:00,
2013-03-29 23:27:00,50.0,46.0,30.12,SE,124,3.0,9.0,86,0.00,,,0.00,meteohub,2013-03-30 06:27:00,
2013-03-29 23:32:00,49.6,44.8,30.12,ESE,113,4.0,9.0,83,0.00,,,0.00,meteohub,2013-03-30 06:32:00,
2013-03-29 23:42:00,49.8,43.9,30.12,SSE,148,5.0,8.0,80,0.00,,,0.00,meteohub,2013-03-30 06:42:00,
2013-03-29 23:47:00,50.0,41.7,30.11,South,183,2.0,8.0,73,0.00,,,0.00,meteohub,2013-03-30 06:47:00,
2013-03-29 23:57:00,50.2,41.5,30.11,ESE,120,3.0,7.0,72,0.00,,,0.00,meteohub,2013-03-30 06:57:00,